Time;durP1;ratioP1;P1;durP2;ratioP2;P2;SDS_P1;SDS_P2;PMS_P1;PMS_P2;Temp;Humidity;BMP_temperature;BMP_pressure;BME280_temperature;BME280_humidity;BME280_pressure;Samples;Min_cycle;Max_cycle;Signal;HPM_P1;HPM_P2
2021/12/24 00:00:25;;;;;;;24.63;9.00;;;;;;;;;;5030175;28;20013;-65
2021/12/24 00:02:54;;;;;;;32.28;12.85;;;;;;;;;;5030839;28;20021;-65
2021/12/24 00:05:19;;;;;;;35.95;16.65;;;;;;;;;;5030574;28;20660;-65
2021/12/24 00:07:44;;;;;;;35.58;14.27;;;;;;;;;;5025236;28;20097;-65
2021/12/24 00:10:10;;;;;;;30.05;12.77;;;;;;;;;;5015360;28;20437;-65
2021/12/24 00:12:39;;;;;;;26.17;10.70;;;;;;;;;;5030615;28;20037;-65
2021/12/24 00:15:18;;;;;;;21.25;9.90;;;;;;;;;;5030559;28;20017;-65
2021/12/24 00:17:43;;;;;;;27.27;10.70;;;;;;;;;;5030277;28;20096;-65
2021/12/24 00:21:01;;;;;;;23.00;10.10;;;;;;;;;;5029914;28;20105;-65
2021/12/24 00:23:23;;;;;;;36.33;13.55;;;;;;;;;;5028703;28;20446;-65
2021/12/24 00:36:38;;;;;;;30.98;13.02;;;;;;;;;;5043885;23;20063;-64
2021/12/24 00:39:03;;;;;;;28.98;15.07;;;;;;;;;;5050645;28;20029;-65
2021/12/24 00:41:28;;;;;;;29.75;13.73;;;;;;;;;;5048150;28;20353;-65
2021/12/24 00:43:53;;;;;;;13.45;6.47;;;;;;;;;;5049307;28;20492;-65
2021/12/24 00:46:19;;;;;;;13.73;6.28;;;;;;;;;;5049705;28;20028;-65
2021/12/24 00:48:46;;;;;;;26.83;13.20;;;;;;;;;;5049995;28;20419;-65
2021/12/24 00:51:20;;;;;;;30.15;13.57;;;;;;;;;;5049507;28;20021;-65
2021/12/24 00:56:13;;;;;;;23.65;14.18;;;;;;;;;;5042224;28;20029;-65
2021/12/24 00:58:39;;;;;;;24.33;9.45;;;;;;;;;;5049846;28;20071;-65
2021/12/24 01:01:05;;;;;;;24.85;11.60;;;;;;;;;;5049244;28;20470;-65
2021/12/24 01:03:31;;;;;;;24.52;11.65;;;;;;;;;;5049753;28;20031;-65
2021/12/24 01:05:56;;;;;;;21.25;8.77;;;;;;;;;;5044862;28;20013;-65
2021/12/24 01:08:21;;;;;;;22.85;8.55;;;;;;;;;;5040194;28;20017;-65
2021/12/24 01:10:49;;;;;;;18.83;10.43;;;;;;;;;;5039438;28;20489;-65
2021/12/24 01:13:15;;;;;;;25.42;9.93;;;;;;;;;;5048137;28;20032;-65
2021/12/24 01:15:52;;;;;;;23.42;10.90;;;;;;;;;;5049628;28;20017;-65
2021/12/24 01:19:04;;;;;;;20.63;10.07;;;;;;;;;;5049751;28;20032;-65
2021/12/24 01:21:22;;;;;;;11.30;5.80;;;;;;;;;;5038764;28;20099;-65
2021/12/24 01:23:54;;;;;;;19.02;10.02;;;;;;;;;;5044805;28;20515;-65
2021/12/24 01:26:34;;;;;;;12.25;6.57;;;;;;;;;;5051788;28;20027;-65
2021/12/24 01:29:42;;;;;;;13.02;6.75;;;;;;;;;;5054080;28;20020;-65
2021/12/24 01:42:46;;;;;;;22.10;9.50;;;;;;;;;;5053004;28;20100;-65
2021/12/24 01:45:29;;;;;;;11.50;5.68;;;;;;;;;;5053317;28;20384;-65
2021/12/24 01:47:58;;;;;;;14.68;8.55;;;;;;;;;;5053406;28;20025;-65
2021/12/24 01:50:24;;;;;;;18.63;8.50;;;;;;;;;;5053133;28;20021;-65
2021/12/24 01:52:51;;;;;;;22.05;9.07;;;;;;;;;;5053622;28;20025;-65
2021/12/24 01:55:17;;;;;;;10.52;4.28;;;;;;;;;;5052938;28;20021;-65
2021/12/24 01:57:42;;;;;;;22.65;10.43;;;;;;;;;;5053175;28;20013;-65
2021/12/24 02:00:09;;;;;;;23.30;12.43;;;;;;;;;;5052101;28;20025;-65
2021/12/24 02:02:34;;;;;;;21.00;9.00;;;;;;;;;;5035319;28;20082;-65
2021/12/24 02:04:59;;;;;;;24.35;10.25;;;;;;;;;;5053047;28;20423;-65
2021/12/24 02:07:25;;;;;;;19.00;8.57;;;;;;;;;;5052756;28;20037;-65
2021/12/24 02:09:53;;;;;;;32.97;10.73;;;;;;;;;;5051665;28;20032;-65
2021/12/24 02:12:18;;;;;;;17.40;8.32;;;;;;;;;;5052682;28;20029;-65
2021/12/24 02:14:48;;;;;;;16.30;7.57;;;;;;;;;;5053098;28;20025;-65
2021/12/24 02:30:40;;;;;;;20.02;8.80;;;;;;;;;;5052058;28;20024;-65
2021/12/24 02:33:05;;;;;;;18.70;8.25;;;;;;;;;;5040965;28;20029;-65
2021/12/24 02:35:31;;;;;;;21.02;8.38;;;;;;;;;;5050296;28;20131;-65
2021/12/24 02:37:57;;;;;;;10.82;5.38;;;;;;;;;;5050915;28;20039;-65
2021/12/24 02:40:22;;;;;;;20.35;7.95;;;;;;;;;;5052075;28;20017;-65
2021/12/24 02:42:52;;;;;;;10.10;5.50;;;;;;;;;;5052145;28;20487;-65
2021/12/24 02:45:18;;;;;;;25.13;12.45;;;;;;;;;;5052647;28;20009;-65
2021/12/24 02:48:08;;;;;;;30.67;9.70;;;;;;;;;;5052323;28;20106;-65
2021/12/24 02:55:57;;;;;;;27.70;11.48;;;;;;;;;;5051529;28;20047;-65
2021/12/24 02:58:22;;;;;;;17.40;7.20;;;;;;;;;;5036126;28;20017;-65
2021/12/24 03:00:48;;;;;;;22.95;10.27;;;;;;;;;;5042882;28;20314;-65
2021/12/24 03:03:14;;;;;;;23.20;8.93;;;;;;;;;;5052326;28;20070;-65
2021/12/24 03:05:40;;;;;;;16.90;7.97;;;;;;;;;;5050710;28;20044;-65
2021/12/24 03:08:05;;;;;;;19.13;10.00;;;;;;;;;;5051096;28;20484;-65
2021/12/24 03:10:31;;;;;;;24.85;10.77;;;;;;;;;;5051119;28;20024;-65
2021/12/24 03:12:56;;;;;;;21.75;10.45;;;;;;;;;;5052132;28;20025;-65
2021/12/24 03:15:23;;;;;;;21.58;10.48;;;;;;;;;;5051769;28;20028;-65
2021/12/24 03:17:53;;;;;;;22.35;7.43;;;;;;;;;;5052089;28;20100;-65
2021/12/24 03:20:19;;;;;;;20.60;8.63;;;;;;;;;;5050972;28;20071;-65
2021/12/24 03:23:08;;;;;;;19.90;6.80;;;;;;;;;;5050966;28;20488;-65
2021/12/24 03:25:33;;;;;;;24.95;6.40;;;;;;;;;;5034928;28;20018;-65
2021/12/24 03:27:59;;;;;;;22.60;9.57;;;;;;;;;;5052002;28;20423;-65
2021/12/24 03:30:24;;;;;;;19.05;7.15;;;;;;;;;;5051072;28;20059;-65
2021/12/24 03:32:50;;;;;;;26.83;12.07;;;;;;;;;;5051621;28;20021;-65
2021/12/24 03:35:15;;;;;;;27.40;9.45;;;;;;;;;;5050950;28;20029;-65
2021/12/24 03:37:40;;;;;;;18.40;9.18;;;;;;;;;;5048089;28;20060;-65
2021/12/24 03:40:06;;;;;;;32.33;10.73;;;;;;;;;;5048332;28;20515;-65
2021/12/24 03:42:35;;;;;;;12.82;6.25;;;;;;;;;;5051422;28;20021;-65
2021/12/24 03:45:10;;;;;;;22.23;9.48;;;;;;;;;;5051458;28;20284;-65
2021/12/24 03:47:39;;;;;;;21.65;7.05;;;;;;;;;;5050973;28;20040;-65
2021/12/24 03:50:09;;;;;;;20.10;8.40;;;;;;;;;;5050877;28;20074;-65
2021/12/24 03:55:06;;;;;;;16.90;7.43;;;;;;;;;;5048919;28;20597;-65
2021/12/24 03:57:36;;;;;;;15.63;6.72;;;;;;;;;;5050597;28;20112;-65
2021/12/24 04:00:06;;;;;;;12.90;6.57;;;;;;;;;;5050751;28;20017;-65
2021/12/24 04:02:31;;;;;;;18.02;9.07;;;;;;;;;;5051086;28;20108;-65
2021/12/24 04:04:56;;;;;;;31.77;9.38;;;;;;;;;;5050798;28;20112;-65
2021/12/24 04:07:22;;;;;;;22.57;6.97;;;;;;;;;;5050578;28;20021;-65
2021/12/24 04:10:01;;;;;;;16.45;7.07;;;;;;;;;;5032780;28;20269;-65
2021/12/24 04:12:26;;;;;;;17.83;7.90;;;;;;;;;;5050725;28;20032;-65
2021/12/24 04:14:52;;;;;;;23.35;10.60;;;;;;;;;;5050876;28;20021;-65
2021/12/24 04:17:17;;;;;;;14.82;5.85;;;;;;;;;;5050119;28;20466;-65
2021/12/24 04:25:14;;;;;;;35.28;9.98;;;;;;;;;;5038061;28;20538;-65
2021/12/24 04:27:40;;;;;;;25.83;9.50;;;;;;;;;;5050628;28;20024;-65
2021/12/24 04:30:16;;;;;;;31.83;10.60;;;;;;;;;;5049893;28;20078;-65
2021/12/24 04:38:22;;;;;;;18.80;6.82;;;;;;;;;;5050680;28;20318;-65
2021/12/24 04:51:49;;;;;;;28.67;13.07;;;;;;;;;;5053205;28;20040;-65
2021/12/24 05:05:21;;;;;;;37.05;12.45;;;;;;;;;;5049733;28;20116;-65
2021/12/24 05:10:20;;;;;;;33.45;13.02;;;;;;;;;;5049438;28;20083;-65
2021/12/24 05:12:45;;;;;;;26.38;13.77;;;;;;;;;;5049996;28;20021;-65
2021/12/24 05:15:11;;;;;;;33.20;13.00;;;;;;;;;;5049020;28;20021;-65
2021/12/24 05:23:04;;;;;;;21.27;7.70;;;;;;;;;;5050005;28;20028;-65
2021/12/24 05:25:30;;;;;;;14.85;7.60;;;;;;;;;;5049352;28;20025;-65
2021/12/24 05:27:55;;;;;;;27.85;12.20;;;;;;;;;;5050030;28;20031;-65
2021/12/24 05:30:21;;;;;;;36.58;14.73;;;;;;;;;;5048623;28;20031;-65
2021/12/24 05:32:46;;;;;;;28.52;12.43;;;;;;;;;;5049603;28;20032;-64
2021/12/24 05:35:12;;;;;;;40.35;14.02;;;;;;;;;;5049426;28;20021;-66
2021/12/24 05:37:37;;;;;;;29.45;14.15;;;;;;;;;;5048705;28;20032;-66
2021/12/24 05:40:02;;;;;;;31.90;14.48;;;;;;;;;;5049612;28;20482;-65
2021/12/24 05:42:31;;;;;;;43.00;17.45;;;;;;;;;;5049595;28;20556;-65
2021/12/24 05:45:02;;;;;;;31.40;13.05;;;;;;;;;;5049796;28;20020;-65
2021/12/24 05:47:27;;;;;;;50.50;16.23;;;;;;;;;;5031686;28;20405;-65
2021/12/24 05:49:52;;;;;;;41.45;16.67;;;;;;;;;;5049690;28;20013;-66
2021/12/24 05:52:18;;;;;;;34.13;14.20;;;;;;;;;;5030983;28;20021;-64
2021/12/24 05:54:43;;;;;;;36.13;16.20;;;;;;;;;;5049378;28;20028;-65
2021/12/24 05:57:08;;;;;;;41.00;15.98;;;;;;;;;;5048612;28;20100;-66
2021/12/24 05:59:33;;;;;;;41.05;16.48;;;;;;;;;;5049517;28;20025;-66
2021/12/24 06:01:59;;;;;;;36.42;15.57;;;;;;;;;;5049490;28;20469;-65
2021/12/24 06:04:24;;;;;;;39.43;17.90;;;;;;;;;;5049346;28;20086;-65
2021/12/24 06:06:49;;;;;;;30.50;15.73;;;;;;;;;;5049087;28;20285;-65
2021/12/24 06:09:14;;;;;;;34.78;15.27;;;;;;;;;;5048966;28;20029;-65
2021/12/24 06:11:39;;;;;;;34.93;18.83;;;;;;;;;;5051141;28;20480;-65
2021/12/24 06:14:10;;;;;;;39.13;16.17;;;;;;;;;;5052693;28;20359;-65
2021/12/24 06:16:36;;;;;;;28.15;12.60;;;;;;;;;;5053233;28;20295;-65
2021/12/24 06:19:02;;;;;;;29.13;11.80;;;;;;;;;;5053170;28;20056;-65
2021/12/24 06:21:27;;;;;;;36.03;16.13;;;;;;;;;;5052829;28;20071;-65
2021/12/24 06:23:52;;;;;;;33.78;14.10;;;;;;;;;;5052488;28;20489;-65
2021/12/24 06:26:17;;;;;;;33.80;15.60;;;;;;;;;;5052466;28;20028;-65
2021/12/24 06:28:43;;;;;;;37.00;15.65;;;;;;;;;;5052642;28;20029;-65
2021/12/24 06:31:08;;;;;;;30.63;13.10;;;;;;;;;;5052603;28;20025;-65
2021/12/24 06:33:33;;;;;;;34.70;10.00;;;;;;;;;;5052553;28;20055;-65
2021/12/24 06:38:26;;;;;;;29.42;12.50;;;;;;;;;;5030733;28;20042;-68
2021/12/24 06:40:52;;;;;;;34.13;12.68;;;;;;;;;;5032152;28;20017;-66
2021/12/24 06:43:17;;;;;;;29.05;12.10;;;;;;;;;;5030633;28;20465;-65
2021/12/24 06:45:43;;;;;;;27.60;12.80;;;;;;;;;;5032809;28;20080;-65
2021/12/24 06:48:08;;;;;;;40.58;14.98;;;;;;;;;;5032524;28;20268;-65
2021/12/24 06:50:33;;;;;;;35.92;15.50;;;;;;;;;;5031936;28;20035;-66
2021/12/24 06:52:58;;;;;;;32.67;14.75;;;;;;;;;;5032186;28;20425;-65
2021/12/24 06:55:24;;;;;;;36.45;15.20;;;;;;;;;;5032557;28;20021;-66
2021/12/24 06:57:49;;;;;;;44.90;16.95;;;;;;;;;;5031555;28;20034;-65
2021/12/24 07:00:16;;;;;;;37.92;17.65;;;;;;;;;;5031975;28;20030;-65
2021/12/24 07:02:41;;;;;;;30.15;12.60;;;;;;;;;;5031741;28;20076;-65
2021/12/24 07:05:06;;;;;;;36.20;16.50;;;;;;;;;;5032539;28;20013;-65
2021/12/24 07:07:32;;;;;;;45.05;17.02;;;;;;;;;;5032696;28;20021;-65
2021/12/24 07:09:57;;;;;;;42.47;20.80;;;;;;;;;;5031702;28;20104;-65
2021/12/24 07:12:22;;;;;;;37.30;16.07;;;;;;;;;;5032213;28;20025;-65
2021/12/24 07:14:49;;;;;;;43.33;17.27;;;;;;;;;;5031660;28;20280;-66
2021/12/24 07:17:14;;;;;;;37.38;15.85;;;;;;;;;;5031646;28;20018;-65
2021/12/24 07:19:39;;;;;;;36.05;15.35;;;;;;;;;;5031558;28;20037;-65
2021/12/24 07:22:06;;;;;;;38.50;15.23;;;;;;;;;;5035314;28;20071;-65
2021/12/24 07:24:32;;;;;;;34.40;12.88;;;;;;;;;;5039852;28;20295;-65
2021/12/24 07:26:57;;;;;;;34.87;16.00;;;;;;;;;;5030055;28;20486;-66
2021/12/24 07:29:22;;;;;;;43.27;14.07;;;;;;;;;;5031701;28;20303;-65
2021/12/24 07:31:47;;;;;;;29.77;12.50;;;;;;;;;;5031305;28;20733;-65
2021/12/24 07:34:12;;;;;;;50.70;15.27;;;;;;;;;;5030130;28;20277;-65
2021/12/24 07:36:38;;;;;;;28.27;13.90;;;;;;;;;;5042640;28;20028;-66
2021/12/24 07:39:03;;;;;;;42.75;14.23;;;;;;;;;;5039602;28;20539;-65
2021/12/24 07:41:28;;;;;;;36.63;13.40;;;;;;;;;;5037472;28;20051;-66
2021/12/24 07:43:55;;;;;;;35.58;12.60;;;;;;;;;;5043249;28;20106;-65
2021/12/24 07:46:22;;;;;;;31.77;13.93;;;;;;;;;;5036883;28;20037;-65
2021/12/24 07:48:49;;;;;;;41.45;13.95;;;;;;;;;;5028271;28;20040;-66
2021/12/24 07:54:00;;;;;;;33.35;12.07;;;;;;;;;;5025346;28;20172;-65
2021/12/24 07:56:29;;;;;;;28.77;13.27;;;;;;;;;;5019585;28;20052;-66
2021/12/24 07:58:54;;;;;;;25.25;8.23;;;;;;;;;;5021249;28;20079;-65
2021/12/24 08:01:21;;;;;;;30.98;10.82;;;;;;;;;;5023945;28;20104;-65
2021/12/24 08:03:47;;;;;;;34.90;12.77;;;;;;;;;;5028550;28;20032;-66
2021/12/24 08:06:12;;;;;;;27.02;12.38;;;;;;;;;;5026715;28;20022;-65
2021/12/24 08:08:37;;;;;;;29.83;12.48;;;;;;;;;;5033890;28;20311;-65
2021/12/24 08:11:02;;;;;;;26.57;11.93;;;;;;;;;;5033010;28;20026;-65
2021/12/24 08:13:28;;;;;;;29.90;10.75;;;;;;;;;;5028223;28;20387;-66
2021/12/24 08:15:54;;;;;;;34.20;9.80;;;;;;;;;;5036833;28;20021;-65
2021/12/24 08:18:19;;;;;;;20.80;10.30;;;;;;;;;;5030337;28;20275;-66
2021/12/24 08:20:45;;;;;;;30.35;11.95;;;;;;;;;;5029986;28;20074;-65
2021/12/24 08:23:10;;;;;;;33.58;13.02;;;;;;;;;;5026995;28;20402;-66
2021/12/24 08:25:35;;;;;;;34.55;13.02;;;;;;;;;;5027947;28;20068;-65
2021/12/24 08:28:00;;;;;;;26.80;8.75;;;;;;;;;;5024887;28;20044;-66
2021/12/24 08:30:26;;;;;;;25.80;10.30;;;;;;;;;;5023820;28;20083;-65
2021/12/24 08:32:51;;;;;;;38.83;12.40;;;;;;;;;;5028911;28;20033;-68
2021/12/24 08:35:17;;;;;;;22.02;11.07;;;;;;;;;;5029399;28;20021;-68
2021/12/24 08:37:43;;;;;;;31.38;11.73;;;;;;;;;;5024823;28;20097;-66
2021/12/24 08:40:09;;;;;;;32.50;11.40;;;;;;;;;;5025008;28;20181;-65
2021/12/24 08:42:34;;;;;;;28.70;8.02;;;;;;;;;;5023785;28;20026;-64
2021/12/24 08:44:59;;;;;;;8.65;4.57;;;;;;;;;;5027835;28;20025;-66
2021/12/24 08:47:25;;;;;;;15.27;6.67;;;;;;;;;;5029607;28;20025;-65
2021/12/24 08:49:50;;;;;;;23.90;7.78;;;;;;;;;;5029982;28;20571;-65
2021/12/24 08:52:15;;;;;;;30.48;11.10;;;;;;;;;;5028260;28;20469;-66
2021/12/24 08:54:42;;;;;;;13.25;5.40;;;;;;;;;;5030274;28;20500;-66
2021/12/24 08:57:07;;;;;;;22.58;7.85;;;;;;;;;;5029849;28;20458;-66
2021/12/24 08:59:32;;;;;;;27.23;8.50;;;;;;;;;;5010843;28;20041;-66
2021/12/24 09:01:58;;;;;;;30.75;10.50;;;;;;;;;;5018553;28;20025;-67
2021/12/24 09:04:24;;;;;;;22.55;9.88;;;;;;;;;;5030190;28;20028;-66
2021/12/24 09:06:49;;;;;;;33.97;11.82;;;;;;;;;;5028188;28;20026;-67
2021/12/24 09:09:14;;;;;;;13.50;4.57;;;;;;;;;;5030400;28;20033;-66
2021/12/24 09:11:40;;;;;;;16.88;8.23;;;;;;;;;;5029074;28;20307;-67
2021/12/24 09:14:06;;;;;;;24.52;9.80;;;;;;;;;;5030190;28;20060;-67
2021/12/24 09:16:35;;;;;;;26.38;8.55;;;;;;;;;;5029927;28;20458;-66
2021/12/24 09:19:05;;;;;;;26.63;7.35;;;;;;;;;;5029946;28;20024;-66
2021/12/24 09:21:30;;;;;;;17.33;6.43;;;;;;;;;;5028781;28;20017;-66
2021/12/24 09:23:57;;;;;;;31.35;7.28;;;;;;;;;;5029842;28;20520;-65
2021/12/24 09:26:27;;;;;;;15.30;5.93;;;;;;;;;;5030083;28;20030;-67
2021/12/24 09:28:53;;;;;;;;;;;;;;;;;;5030406;28;20021;-66
2021/12/24 09:31:18;;;;;;;18.83;7.82;;;;;;;;;;5029558;28;19944;-67
2021/12/24 09:33:43;;;;;;;20.00;8.32;;;;;;;;;;5029202;28;20021;-65
2021/12/24 09:36:09;;;;;;;29.08;10.68;;;;;;;;;;5029626;28;20072;-66
2021/12/24 09:38:34;;;;;;;33.28;9.77;;;;;;;;;;5029834;28;20181;-66
2021/12/24 09:40:59;;;;;;;30.07;8.47;;;;;;;;;;5025598;28;20041;-65
2021/12/24 09:43:25;;;;;;;23.88;7.68;;;;;;;;;;5029163;28;20351;-66
2021/12/24 09:45:50;;;;;;;22.25;7.82;;;;;;;;;;5029949;28;20113;-66
2021/12/24 09:48:15;;;;;;;29.90;9.00;;;;;;;;;;5032293;28;20052;-67
2021/12/24 09:50:40;;;;;;;23.83;6.85;;;;;;;;;;5027743;28;20025;-67
2021/12/24 09:53:06;;;;;;;25.50;5.95;;;;;;;;;;5031371;28;20025;-66
2021/12/24 09:55:31;;;;;;;33.63;9.80;;;;;;;;;;5032779;28;20032;-67
2021/12/24 09:57:56;;;;;;;27.00;8.57;;;;;;;;;;5031267;28;20353;-67
2021/12/24 10:00:22;;;;;;;34.92;10.10;;;;;;;;;;5037242;28;20013;-66
2021/12/24 10:02:50;;;;;;;32.03;7.53;;;;;;;;;;5032867;28;20525;-66
2021/12/24 10:05:22;;;;;;;28.70;7.72;;;;;;;;;;5033413;28;20584;-66
2021/12/24 10:07:47;;;;;;;21.90;7.45;;;;;;;;;;5051434;28;20082;-66
2021/12/24 10:10:12;;;;;;;21.60;6.20;;;;;;;;;;5053168;28;20025;-66
2021/12/24 10:12:37;;;;;;;29.95;9.43;;;;;;;;;;5053420;28;20428;-66
2021/12/24 10:15:04;;;;;;;17.07;6.03;;;;;;;;;;5046010;28;20033;-65
2021/12/24 10:17:33;;;;;;;37.65;8.52;;;;;;;;;;5032935;28;20280;-65
2021/12/24 10:20:00;;;;;;;33.88;7.80;;;;;;;;;;5033393;28;20598;-66
2021/12/24 10:22:25;;;;;;;32.22;8.27;;;;;;;;;;5032606;28;20381;-67
2021/12/24 10:25:05;;;;;;;15.82;6.13;;;;;;;;;;5033415;28;20021;-66
2021/12/24 10:27:32;;;;;;;20.40;5.82;;;;;;;;;;5033268;28;20029;-66
2021/12/24 10:29:58;;;;;;;32.45;9.18;;;;;;;;;;5032760;28;20492;-65
2021/12/24 10:32:23;;;;;;;27.58;7.00;;;;;;;;;;5032218;28;20034;-66
2021/12/24 10:34:48;;;;;;;27.70;7.47;;;;;;;;;;5032709;28;20029;-67
2021/12/24 10:37:24;;;;;;;17.88;7.53;;;;;;;;;;5030598;28;20108;-66
2021/12/24 10:39:51;;;;;;;34.42;8.40;;;;;;;;;;5045180;28;20051;-66
2021/12/24 10:42:22;;;;;;;36.72;8.05;;;;;;;;;;5052357;28;20025;-66
2021/12/24 10:44:49;;;;;;;33.05;9.27;;;;;;;;;;5036322;28;20433;-66
2021/12/24 10:47:16;;;;;;;32.70;10.20;;;;;;;;;;5024188;28;20042;-66
2021/12/24 10:54:54;;;;;;;20.42;8.23;;;;;;;;;;5029776;28;20029;-66
2021/12/24 10:57:23;;;;;;;33.85;10.95;;;;;;;;;;5024330;28;20469;-67
2021/12/24 10:59:49;;;;;;;31.88;10.27;;;;;;;;;;5023954;28;20097;-67
2021/12/24 11:02:14;;;;;;;24.58;8.68;;;;;;;;;;5026575;28;20010;-67
2021/12/24 11:04:40;;;;;;;31.77;9.75;;;;;;;;;;5024133;28;20030;-67
2021/12/24 11:07:24;;;;;;;34.10;10.32;;;;;;;;;;5027872;28;20026;-67
2021/12/24 11:10:24;;;;;;;33.10;12.02;;;;;;;;;;5029132;28;20032;-67
2021/12/24 11:12:49;;;;;;;;;;;;;;;;;;5008093;28;20053;-67
2021/12/24 11:15:17;;;;;;;40.20;11.32;;;;;;;;;;5030291;28;19994;-67
2021/12/24 11:17:42;;;;;;;31.23;9.68;;;;;;;;;;5031680;28;20030;-67
2021/12/24 11:20:11;;;;;;;30.50;10.20;;;;;;;;;;5031373;28;20036;-67
2021/12/24 11:22:56;;;;;;;26.08;10.43;;;;;;;;;;5031071;28;20018;-67
2021/12/24 11:25:22;;;;;;;26.73;9.18;;;;;;;;;;5024877;28;20075;-66
2021/12/24 11:27:48;;;;;;;36.28;9.45;;;;;;;;;;5036238;28;20029;-67
2021/12/24 11:30:14;;;;;;;30.60;9.68;;;;;;;;;;5035842;28;20025;-66
2021/12/24 11:32:40;;;;;;;32.63;8.38;;;;;;;;;;5039040;28;20388;-66
2021/12/24 11:35:05;;;;;;;29.23;8.63;;;;;;;;;;5028283;28;20025;-67
2021/12/24 11:37:31;;;;;;;44.63;10.85;;;;;;;;;;5025804;28;20039;-67
2021/12/24 11:39:57;;;;;;;30.25;9.18;;;;;;;;;;5019741;28;20029;-66
2021/12/24 11:42:23;;;;;;;33.92;9.50;;;;;;;;;;5025303;28;20390;-66
2021/12/24 11:44:49;;;;;;;40.42;9.13;;;;;;;;;;5029281;28;20013;-66
2021/12/24 11:47:14;;;;;;;28.80;8.63;;;;;;;;;;5039748;28;20060;-67
2021/12/24 11:49:39;;;;;;;31.38;9.95;;;;;;;;;;5022667;28;20029;-67
2021/12/24 11:52:05;;;;;;;32.70;9.50;;;;;;;;;;5023894;28;20022;-67
2021/12/24 11:54:30;;;;;;;26.27;9.40;;;;;;;;;;5024079;28;20022;-67
2021/12/24 11:56:56;;;;;;;36.40;9.82;;;;;;;;;;5023300;28;20029;-67
2021/12/24 11:59:35;;;;;;;37.35;9.30;;;;;;;;;;5033092;28;20077;-67
2021/12/24 12:02:00;;;;;;;28.88;11.35;;;;;;;;;;5027393;28;20029;-67
2021/12/24 12:04:25;;;;;;;25.13;11.23;;;;;;;;;;5023981;28;20017;-67
2021/12/24 12:06:51;;;;;;;34.40;10.97;;;;;;;;;;5022665;28;20701;-67
2021/12/24 12:09:16;;;;;;;29.73;9.63;;;;;;;;;;5025168;28;20283;-67
2021/12/24 12:11:43;;;;;;;32.50;10.88;;;;;;;;;;5039326;28;20379;-67
2021/12/24 12:14:11;;;;;;;28.33;10.80;;;;;;;;;;5033877;28;20029;-67
2021/12/24 12:16:39;;;;;;;28.00;9.35;;;;;;;;;;5032172;28;20044;-67
2021/12/24 12:19:14;;;;;;;41.05;9.00;;;;;;;;;;5034257;28;20397;-67
2021/12/24 12:21:43;;;;;;;28.60;9.18;;;;;;;;;;5027495;28;20014;-67
2021/12/24 12:26:44;;;;;;;20.95;8.05;;;;;;;;;;5036134;28;20032;-67
2021/12/24 12:29:28;;;;;;;29.55;8.52;;;;;;;;;;5031788;28;20029;-67
2021/12/24 12:31:55;;;;;;;30.65;9.50;;;;;;;;;;5028193;28;20024;-67
2021/12/24 12:34:38;;;;;;;27.65;9.27;;;;;;;;;;5029244;28;20502;-67
2021/12/24 12:37:19;;;;;;;28.30;9.00;;;;;;;;;;5075148;23;20075;-65
2021/12/24 12:39:45;;;;;;;27.05;9.55;;;;;;;;;;5076025;28;20382;-65
2021/12/24 12:42:13;;;;;;;30.90;9.40;;;;;;;;;;5079267;28;20380;-65
2021/12/24 12:44:40;;;;;;;34.03;6.78;;;;;;;;;;5072766;28;20035;-64
2021/12/24 12:47:10;;;;;;;28.13;9.25;;;;;;;;;;5071054;28;20104;-64
2021/12/24 12:49:36;;;;;;;28.67;9.30;;;;;;;;;;5076478;28;20059;-65
2021/12/24 12:52:03;;;;;;;23.67;7.43;;;;;;;;;;5081448;28;20056;-65
2021/12/24 12:54:28;;;;;;;17.75;7.60;;;;;;;;;;5079322;28;20107;-65
2021/12/24 12:57:09;;;;;;;18.73;5.72;;;;;;;;;;5083320;28;20126;-66
2021/12/24 12:59:34;;;;;;;;;;;;;;;;;;5085857;28;20054;-66
2021/12/24 13:02:01;;;;;;;28.17;8.98;;;;;;;;;;5095465;28;19907;-65
2021/12/24 13:04:26;;;;;;;13.52;4.18;;;;;;;;;;5078600;28;20113;-66
2021/12/24 13:06:52;;;;;;;16.10;4.88;;;;;;;;;;5077442;28;20097;-64
2021/12/24 13:09:22;;;;;;;21.13;5.65;;;;;;;;;;5078832;28;20518;-65
2021/12/24 13:11:49;;;;;;;28.20;6.10;;;;;;;;;;5078632;28;20031;-66
2021/12/24 13:14:15;;;;;;;24.77;7.22;;;;;;;;;;5082187;28;20035;-65
2021/12/24 13:16:48;;;;;;;31.48;6.95;;;;;;;;;;5082667;28;20058;-65
2021/12/24 13:24:38;;;;;;;15.70;5.97;;;;;;;;;;5075999;28;20613;-65
2021/12/24 13:27:04;;;;;;;29.63;7.15;;;;;;;;;;5075562;28;20107;-65
2021/12/24 13:29:29;;;;;;;21.38;6.80;;;;;;;;;;5092907;28;20102;-65
2021/12/24 13:31:55;;;;;;;18.33;5.37;;;;;;;;;;5090474;28;20375;-65
2021/12/24 13:34:21;;;;;;;29.42;7.28;;;;;;;;;;5083189;28;20738;-65
2021/12/24 13:36:46;;;;;;;32.75;6.78;;;;;;;;;;5084468;28;20107;-65
2021/12/24 13:39:13;;;;;;;25.45;5.97;;;;;;;;;;5082097;28;20588;-65
2021/12/24 13:41:39;;;;;;;23.63;6.25;;;;;;;;;;5084918;28;20020;-65
2021/12/24 13:44:05;;;;;;;27.17;7.15;;;;;;;;;;5075132;28;20368;-65
2021/12/24 13:46:34;;;;;;;40.85;9.30;;;;;;;;;;5076851;28;20032;-65
2021/12/24 13:56:50;;;;;;;34.80;8.90;;;;;;;;;;5091525;28;20171;-65
2021/12/24 13:59:20;;;;;;;31.02;8.40;;;;;;;;;;5080406;28;20504;-65
2021/12/24 14:01:45;;;;;;;23.17;6.93;;;;;;;;;;5089183;28;20019;-65
2021/12/24 14:04:11;;;;;;;36.08;8.13;;;;;;;;;;5085858;28;20388;-65
2021/12/24 14:06:41;;;;;;;27.38;6.03;;;;;;;;;;5080603;28;20020;-65
2021/12/24 14:09:07;;;;;;;27.15;6.50;;;;;;;;;;5075606;28;20024;-65
2021/12/24 14:11:35;;;;;;;28.35;7.60;;;;;;;;;;5081055;28;20051;-65
2021/12/24 14:14:05;;;;;;;32.28;7.82;;;;;;;;;;5079714;28;20024;-65
2021/12/24 14:19:08;;;;;;;23.65;7.50;;;;;;;;;;5081516;28;20107;-65
2021/12/24 14:24:07;;;;;;;24.63;7.07;;;;;;;;;;5087671;28;20032;-65
2021/12/24 14:26:35;;;;;;;12.57;3.40;;;;;;;;;;5080068;28;20385;-65
2021/12/24 14:29:06;;;;;;;28.75;6.85;;;;;;;;;;5084112;28;20024;-66
2021/12/24 14:31:50;;;;;;;27.20;8.63;;;;;;;;;;5086618;28;20012;-65
2021/12/24 14:34:29;;;;;;;21.10;6.25;;;;;;;;;;5089827;28;20361;-65
2021/12/24 14:36:58;;;;;;;28.02;6.90;;;;;;;;;;5078361;28;20031;-65
2021/12/24 14:39:23;;;;;;;23.05;6.78;;;;;;;;;;5080742;28;20107;-65
2021/12/24 14:42:07;;;;;;;31.30;7.47;;;;;;;;;;5091533;28;20214;-66
2021/12/24 14:44:32;;;;;;;31.17;8.93;;;;;;;;;;5091196;28;20263;-65
2021/12/24 14:46:57;;;;;;;25.80;7.47;;;;;;;;;;5077018;28;20039;-65
2021/12/24 14:49:30;;;;;;;36.30;10.07;;;;;;;;;;5087234;28;20263;-65
2021/12/24 14:52:12;;;;;;;32.60;9.63;;;;;;;;;;5075704;28;20039;-65
2021/12/24 14:54:57;;;;;;;24.70;8.75;;;;;;;;;;5081095;28;20113;-65
2021/12/24 14:57:24;;;;;;;30.50;8.52;;;;;;;;;;5078640;28;20480;-65
2021/12/24 14:59:49;;;;;;;44.67;9.77;;;;;;;;;;5087400;28;20017;-65
2021/12/24 15:02:14;;;;;;;25.27;7.65;;;;;;;;;;5080616;28;20028;-65
2021/12/24 15:04:40;;;;;;;33.08;9.38;;;;;;;;;;5080453;28;20016;-65
2021/12/24 15:07:05;;;;;;;23.67;8.73;;;;;;;;;;5079546;28;20103;-65
2021/12/24 15:09:32;;;;;;;33.72;10.15;;;;;;;;;;5084119;28;20129;-65
2021/12/24 15:11:57;;;;;;;33.28;10.80;;;;;;;;;;5097145;28;20024;-65
2021/12/24 15:14:27;;;;;;;26.42;9.50;;;;;;;;;;5074538;28;20032;-65
2021/12/24 15:16:53;;;;;;;28.05;10.82;;;;;;;;;;5081923;28;20020;-66
2021/12/24 15:19:19;;;;;;;26.25;9.45;;;;;;;;;;5075895;28;20369;-66
2021/12/24 15:21:45;;;;;;;26.20;9.85;;;;;;;;;;5076839;28;20012;-66
2021/12/24 15:24:12;;;;;;;35.83;11.13;;;;;;;;;;5091645;28;20032;-65
2021/12/24 15:26:37;;;;;;;35.92;11.20;;;;;;;;;;5083683;28;20031;-64
2021/12/24 15:29:04;;;;;;;37.73;11.50;;;;;;;;;;5088230;28;20020;-63
2021/12/24 15:31:32;;;;;;;32.22;11.10;;;;;;;;;;5085685;28;20274;-65
2021/12/24 15:33:58;;;;;;;35.03;10.20;;;;;;;;;;5089574;28;20092;-65
2021/12/24 15:36:24;;;;;;;28.75;9.80;;;;;;;;;;5083680;28;20094;-65
2021/12/24 15:38:49;;;;;;;32.67;10.98;;;;;;;;;;5098011;28;20038;-65
2021/12/24 15:41:14;;;;;;;33.85;11.85;;;;;;;;;;5080321;28;20021;-65
2021/12/24 15:43:40;;;;;;;38.10;11.57;;;;;;;;;;5077019;28;20069;-65
2021/12/24 15:46:06;;;;;;;44.22;14.07;;;;;;;;;;5083112;28;20588;-66
2021/12/24 15:48:31;;;;;;;30.27;8.95;;;;;;;;;;5080318;28;20027;-65
2021/12/24 15:50:58;;;;;;;24.90;9.57;;;;;;;;;;5092540;28;20040;-65
2021/12/24 15:53:24;;;;;;;31.27;8.38;;;;;;;;;;5092924;28;20023;-65
2021/12/24 15:55:50;;;;;;;32.88;10.27;;;;;;;;;;5086199;28;20176;-65
2021/12/24 15:58:16;;;;;;;42.13;12.80;;;;;;;;;;5078555;28;20612;-65
2021/12/24 16:00:44;;;;;;;27.30;10.65;;;;;;;;;;5075683;28;20024;-65
2021/12/24 16:03:09;;;;;;;42.95;12.40;;;;;;;;;;5075409;28;20019;-65
2021/12/24 16:05:34;;;;;;;42.60;14.68;;;;;;;;;;5076462;28;20077;-65
2021/12/24 16:08:00;;;;;;;33.38;13.57;;;;;;;;;;5079973;28;20032;-65
2021/12/24 16:10:25;;;;;;;30.85;11.38;;;;;;;;;;5081219;28;20483;-65
2021/12/24 16:12:51;;;;;;;38.15;11.50;;;;;;;;;;5076289;28;20028;-65
2021/12/24 16:15:16;;;;;;;31.90;10.82;;;;;;;;;;5072676;28;20028;-65
2021/12/24 16:17:42;;;;;;;36.22;11.48;;;;;;;;;;5079872;28;20039;-66
2021/12/24 16:20:08;;;;;;;28.85;10.45;;;;;;;;;;5091065;28;20027;-65
2021/12/24 16:22:34;;;;;;;39.70;10.38;;;;;;;;;;5076965;28;20552;-65
2021/12/24 16:24:59;;;;;;;33.72;10.48;;;;;;;;;;5078586;28;20090;-65